sensor_id;sensor_type;location;lat;lon;timestamp;P1;durP1;ratioP1;P2;durP2;ratioP2
26562;SDS011;14217;50.986;5.826;2022-09-20T00:02:32;1.85;;;0.60;;
26562;SDS011;14217;50.986;5.826;2022-09-20T00:07:33;0.47;;;0.28;;
26562;SDS011;14217;50.986;5.826;2022-09-20T00:12:36;1.98;;;0.45;;
26562;SDS011;14217;50.986;5.826;2022-09-20T00:17:38;0.55;;;0.20;;
26562;SDS011;14217;50.986;5.826;2022-09-20T00:22:39;0.57;;;0.30;;
26562;SDS011;14217;50.986;5.826;2022-09-20T00:27:41;0.52;;;0.20;;
26562;SDS011;14217;50.986;5.826;2022-09-20T00:32:43;0.20;;;0.20;;
26562;SDS011;14217;50.986;5.826;2022-09-20T00:37:45;0.28;;;0.20;;
26562;SDS011;14217;50.986;5.826;2022-09-20T00:42:48;0.17;;;0.17;;
26562;SDS011;14217;50.986;5.826;2022-09-20T00:53:02;1.25;;;0.20;;
26562;SDS011;14217;50.986;5.826;2022-09-20T00:58:10;1.65;;;0.30;;
26562;SDS011;14217;50.986;5.826;2022-09-20T01:03:13;0.20;;;0.20;;
26562;SDS011;14217;50.986;5.826;2022-09-20T01:08:18;0.25;;;0.25;;
26562;SDS011;14217;50.986;5.826;2022-09-20T01:13:21;1.13;;;0.20;;
26562;SDS011;14217;50.986;5.826;2022-09-20T01:18:23;0.68;;;0.22;;
26562;SDS011;14217;50.986;5.826;2022-09-20T01:28:42;0.32;;;0.20;;
26562;SDS011;14217;50.986;5.826;2022-09-20T01:34:06;0.10;;;0.10;;
26562;SDS011;14217;50.986;5.826;2022-09-20T01:39:30;0.52;;;0.30;;
26562;SDS011;14217;50.986;5.826;2022-09-20T01:44:47;0.68;;;0.20;;
26562;SDS011;14217;50.986;5.826;2022-09-20T02:00:57;0.93;;;0.20;;
26562;SDS011;14217;50.986;5.826;2022-09-20T02:06:33;0.47;;;0.30;;
26562;SDS011;14217;50.986;5.826;2022-09-20T02:23:42;0.13;;;0.10;;
26562;SDS011;14217;50.986;5.826;2022-09-20T02:28:47;0.47;;;0.25;;
26562;SDS011;14217;50.986;5.826;2022-09-20T02:39:31;1.75;;;0.20;;
26562;SDS011;14217;50.986;5.826;2022-09-20T02:44:57;0.32;;;0.10;;
26562;SDS011;14217;50.986;5.826;2022-09-20T03:01:20;0.30;;;0.20;;
26562;SDS011;14217;50.986;5.826;2022-09-20T03:17:26;0.63;;;0.30;;
26562;SDS011;14217;50.986;5.826;2022-09-20T03:28:38;0.22;;;0.20;;
26562;SDS011;14217;50.986;5.826;2022-09-20T03:34:06;1.42;;;0.22;;
26562;SDS011;14217;50.986;5.826;2022-09-20T03:44:46;0.38;;;0.30;;
26562;SDS011;14217;50.986;5.826;2022-09-20T04:11:33;0.85;;;0.38;;
26562;SDS011;14217;50.986;5.826;2022-09-20T04:16:49;0.45;;;0.30;;
26562;SDS011;14217;50.986;5.826;2022-09-20T04:21:59;0.73;;;0.30;;
26562;SDS011;14217;50.986;5.826;2022-09-20T04:27:13;0.52;;;0.20;;
26562;SDS011;14217;50.986;5.826;2022-09-20T04:32:23;0.50;;;0.30;;
26562;SDS011;14217;50.986;5.826;2022-09-20T04:37:44;0.50;;;0.20;;
26562;SDS011;14217;50.986;5.826;2022-09-20T04:59:18;1.58;;;0.32;;
26562;SDS011;14217;50.986;5.826;2022-09-20T05:20:43;0.77;;;0.30;;
26562;SDS011;14217;50.986;5.826;2022-09-20T05:31:11;1.15;;;0.43;;
26562;SDS011;14217;50.986;5.826;2022-09-20T05:36:22;0.55;;;0.32;;
26562;SDS011;14217;50.986;5.826;2022-09-20T05:41:55;0.40;;;0.30;;
26562;SDS011;14217;50.986;5.826;2022-09-20T05:47:16;6.03;;;0.40;;
26562;SDS011;14217;50.986;5.826;2022-09-20T06:18:38;1.77;;;0.30;;
26562;SDS011;14217;50.986;5.826;2022-09-20T06:23:45;0.65;;;0.30;;
26562;SDS011;14217;50.986;5.826;2022-09-20T06:28:48;0.30;;;0.20;;
26562;SDS011;14217;50.986;5.826;2022-09-20T06:44:50;1.02;;;0.40;;
26562;SDS011;14217;50.986;5.826;2022-09-20T06:49:52;1.45;;;0.30;;
26562;SDS011;14217;50.986;5.826;2022-09-20T06:54:54;5.25;;;0.70;;
26562;SDS011;14217;50.986;5.826;2022-09-20T06:59:57;2.53;;;1.33;;
26562;SDS011;14217;50.986;5.826;2022-09-20T07:04:59;2.08;;;0.85;;
26562;SDS011;14217;50.986;5.826;2022-09-20T07:10:01;25.70;;;1.48;;
26562;SDS011;14217;50.986;5.826;2022-09-20T07:15:03;1.10;;;0.60;;
26562;SDS011;14217;50.986;5.826;2022-09-20T07:20:06;3.60;;;0.90;;
26562;SDS011;14217;50.986;5.826;2022-09-20T07:25:08;2.58;;;0.70;;
26562;SDS011;14217;50.986;5.826;2022-09-20T07:30:11;1.73;;;0.63;;
26562;SDS011;14217;50.986;5.826;2022-09-20T07:35:15;1.60;;;0.75;;
26562;SDS011;14217;50.986;5.826;2022-09-20T07:40:17;5.82;;;0.80;;
26562;SDS011;14217;50.986;5.826;2022-09-20T07:45:19;0.65;;;0.50;;
26562;SDS011;14217;50.986;5.826;2022-09-20T07:50:21;1.50;;;0.75;;
26562;SDS011;14217;50.986;5.826;2022-09-20T07:55:23;3.25;;;0.57;;
26562;SDS011;14217;50.986;5.826;2022-09-20T08:00:25;2.60;;;0.80;;
26562;SDS011;14217;50.986;5.826;2022-09-20T08:05:27;3.38;;;0.77;;
26562;SDS011;14217;50.986;5.826;2022-09-20T08:10:29;8.13;;;0.70;;
26562;SDS011;14217;50.986;5.826;2022-09-20T08:15:33;5.45;;;0.95;;
26562;SDS011;14217;50.986;5.826;2022-09-20T08:20:35;5.55;;;1.65;;
26562;SDS011;14217;50.986;5.826;2022-09-20T08:25:40;4.40;;;1.08;;
26562;SDS011;14217;50.986;5.826;2022-09-20T08:30:42;2.45;;;0.77;;
26562;SDS011;14217;50.986;5.826;2022-09-20T08:35:47;1.48;;;0.63;;
26562;SDS011;14217;50.986;5.826;2022-09-20T08:40:49;9.27;;;0.80;;
26562;SDS011;14217;50.986;5.826;2022-09-20T08:45:52;3.58;;;0.90;;
26562;SDS011;14217;50.986;5.826;2022-09-20T08:50:56;2.22;;;0.70;;
26562;SDS011;14217;50.986;5.826;2022-09-20T08:55:58;5.07;;;1.17;;
26562;SDS011;14217;50.986;5.826;2022-09-20T09:01:02;1.35;;;0.63;;
26562;SDS011;14217;50.986;5.826;2022-09-20T09:06:04;3.17;;;0.70;;
26562;SDS011;14217;50.986;5.826;2022-09-20T09:11:13;1.45;;;0.60;;
26562;SDS011;14217;50.986;5.826;2022-09-20T09:16:18;3.05;;;0.98;;
26562;SDS011;14217;50.986;5.826;2022-09-20T09:21:28;2.22;;;0.80;;
26562;SDS011;14217;50.986;5.826;2022-09-20T09:26:35;0.90;;;0.70;;
26562;SDS011;14217;50.986;5.826;2022-09-20T09:31:39;1.95;;;0.70;;
26562;SDS011;14217;50.986;5.826;2022-09-20T09:36:43;1.27;;;0.60;;
26562;SDS011;14217;50.986;5.826;2022-09-20T09:41:45;1.88;;;0.68;;
26562;SDS011;14217;50.986;5.826;2022-09-20T09:46:47;0.45;;;0.40;;
26562;SDS011;14217;50.986;5.826;2022-09-20T10:13:34;1.52;;;0.50;;
26562;SDS011;14217;50.986;5.826;2022-09-20T10:35:00;1.17;;;0.32;;
26562;SDS011;14217;50.986;5.826;2022-09-20T10:50:50;0.55;;;0.52;;
26562;SDS011;14217;50.986;5.826;2022-09-20T11:12:45;1.98;;;0.63;;
26562;SDS011;14217;50.986;5.826;2022-09-20T11:17:58;2.20;;;0.38;;
26562;SDS011;14217;50.986;5.826;2022-09-20T11:23:22;0.45;;;0.40;;
26562;SDS011;14217;50.986;5.826;2022-09-20T11:28:35;2.25;;;0.50;;
26562;SDS011;14217;50.986;5.826;2022-09-20T11:33:42;0.45;;;0.40;;
26562;SDS011;14217;50.986;5.826;2022-09-20T11:44:40;0.65;;;0.47;;
26562;SDS011;14217;50.986;5.826;2022-09-20T12:00:29;0.50;;;0.30;;
26562;SDS011;14217;50.986;5.826;2022-09-20T12:05:38;1.58;;;0.43;;
26562;SDS011;14217;50.986;5.826;2022-09-20T12:10:41;0.30;;;0.30;;
26562;SDS011;14217;50.986;5.826;2022-09-20T12:15:57;1.10;;;0.50;;
26562;SDS011;14217;50.986;5.826;2022-09-20T12:36:27;1.20;;;0.40;;
26562;SDS011;14217;50.986;5.826;2022-09-20T12:41:43;2.15;;;0.40;;
26562;SDS011;14217;50.986;5.826;2022-09-20T12:47:02;1.40;;;0.75;;
26562;SDS011;14217;50.986;5.826;2022-09-20T12:57:41;0.88;;;0.52;;
26562;SDS011;14217;50.986;5.826;2022-09-20T13:07:52;1.30;;;0.50;;
26562;SDS011;14217;50.986;5.826;2022-09-20T13:13:02;1.65;;;0.40;;
26562;SDS011;14217;50.986;5.826;2022-09-20T13:18:11;0.98;;;0.20;;
26562;SDS011;14217;50.986;5.826;2022-09-20T13:23:20;1.05;;;0.57;;
26562;SDS011;14217;50.986;5.826;2022-09-20T13:28:28;1.20;;;0.40;;
26562;SDS011;14217;50.986;5.826;2022-09-20T13:33:40;7.65;;;0.93;;
26562;SDS011;14217;50.986;5.826;2022-09-20T13:38:42;3.13;;;0.52;;
26562;SDS011;14217;50.986;5.826;2022-09-20T13:43:46;5.72;;;0.47;;
26562;SDS011;14217;50.986;5.826;2022-09-20T13:48:52;2.13;;;0.85;;
26562;SDS011;14217;50.986;5.826;2022-09-20T13:54:16;4.50;;;0.60;;
26562;SDS011;14217;50.986;5.826;2022-09-20T13:59:30;9.73;;;0.80;;
26562;SDS011;14217;50.986;5.826;2022-09-20T14:04:35;8.52;;;0.47;;
26562;SDS011;14217;50.986;5.826;2022-09-20T14:09:39;3.40;;;0.60;;
26562;SDS011;14217;50.986;5.826;2022-09-20T14:14:41;3.92;;;0.70;;
26562;SDS011;14217;50.986;5.826;2022-09-20T14:19:45;1.65;;;0.47;;
26562;SDS011;14217;50.986;5.826;2022-09-20T14:30:33;3.50;;;0.60;;
26562;SDS011;14217;50.986;5.826;2022-09-20T14:35:37;2.83;;;0.30;;
26562;SDS011;14217;50.986;5.826;2022-09-20T14:40:48;7.00;;;1.30;;
26562;SDS011;14217;50.986;5.826;2022-09-20T14:45:54;2.45;;;0.38;;
26562;SDS011;14217;50.986;5.826;2022-09-20T14:51:10;2.53;;;0.55;;
26562;SDS011;14217;50.986;5.826;2022-09-20T14:56:25;1.38;;;0.35;;
26562;SDS011;14217;50.986;5.826;2022-09-20T15:01:33;1.67;;;0.52;;
26562;SDS011;14217;50.986;5.826;2022-09-20T15:06:38;1.73;;;0.40;;
26562;SDS011;14217;50.986;5.826;2022-09-20T15:11:40;2.58;;;0.70;;
26562;SDS011;14217;50.986;5.826;2022-09-20T15:16:42;1.27;;;0.30;;
26562;SDS011;14217;50.986;5.826;2022-09-20T15:21:44;1.48;;;0.40;;
26562;SDS011;14217;50.986;5.826;2022-09-20T15:26:45;1.55;;;0.80;;
26562;SDS011;14217;50.986;5.826;2022-09-20T15:31:47;3.00;;;0.55;;
26562;SDS011;14217;50.986;5.826;2022-09-20T15:36:49;4.47;;;0.45;;
26562;SDS011;14217;50.986;5.826;2022-09-20T15:41:51;1.33;;;0.50;;
26562;SDS011;14217;50.986;5.826;2022-09-20T15:46:53;1.95;;;0.43;;
26562;SDS011;14217;50.986;5.826;2022-09-20T15:51:55;1.52;;;0.38;;
26562;SDS011;14217;50.986;5.826;2022-09-20T15:56:57;0.77;;;0.20;;
26562;SDS011;14217;50.986;5.826;2022-09-20T16:01:59;2.28;;;0.60;;
26562;SDS011;14217;50.986;5.826;2022-09-20T16:07:02;0.63;;;0.40;;
26562;SDS011;14217;50.986;5.826;2022-09-20T16:12:06;1.58;;;0.63;;
26562;SDS011;14217;50.986;5.826;2022-09-20T16:17:08;2.08;;;0.60;;
26562;SDS011;14217;50.986;5.826;2022-09-20T16:22:09;2.25;;;0.65;;
26562;SDS011;14217;50.986;5.826;2022-09-20T16:27:12;0.45;;;0.45;;
26562;SDS011;14217;50.986;5.826;2022-09-20T16:32:19;5.75;;;0.50;;
26562;SDS011;14217;50.986;5.826;2022-09-20T16:37:21;1.77;;;0.50;;
26562;SDS011;14217;50.986;5.826;2022-09-20T16:42:24;1.75;;;0.68;;
26562;SDS011;14217;50.986;5.826;2022-09-20T16:47:26;2.08;;;0.75;;
26562;SDS011;14217;50.986;5.826;2022-09-20T16:52:28;8.13;;;0.68;;
26562;SDS011;14217;50.986;5.826;2022-09-20T16:57:29;2.00;;;0.55;;
26562;SDS011;14217;50.986;5.826;2022-09-20T17:02:32;2.03;;;0.40;;
26562;SDS011;14217;50.986;5.826;2022-09-20T17:07:34;1.60;;;0.90;;
26562;SDS011;14217;50.986;5.826;2022-09-20T17:12:35;4.55;;;0.95;;
26562;SDS011;14217;50.986;5.826;2022-09-20T17:17:42;4.18;;;0.80;;
26562;SDS011;14217;50.986;5.826;2022-09-20T17:22:45;8.45;;;0.95;;
26562;SDS011;14217;50.986;5.826;2022-09-20T17:27:47;4.32;;;1.08;;
26562;SDS011;14217;50.986;5.826;2022-09-20T17:32:49;2.33;;;0.82;;
26562;SDS011;14217;50.986;5.826;2022-09-20T17:37:52;8.95;;;0.80;;
26562;SDS011;14217;50.986;5.826;2022-09-20T17:42:54;2.67;;;0.70;;
26562;SDS011;14217;50.986;5.826;2022-09-20T17:47:56;4.30;;;0.95;;
26562;SDS011;14217;50.986;5.826;2022-09-20T17:52:58;3.30;;;1.08;;
26562;SDS011;14217;50.986;5.826;2022-09-20T17:58:00;4.13;;;0.90;;
26562;SDS011;14217;50.986;5.826;2022-09-20T18:03:02;3.60;;;1.08;;
26562;SDS011;14217;50.986;5.826;2022-09-20T18:08:05;3.28;;;0.82;;
26562;SDS011;14217;50.986;5.826;2022-09-20T18:13:07;1.55;;;0.50;;
26562;SDS011;14217;50.986;5.826;2022-09-20T18:18:08;2.28;;;0.65;;
26562;SDS011;14217;50.986;5.826;2022-09-20T18:23:11;4.47;;;0.88;;
26562;SDS011;14217;50.986;5.826;2022-09-20T18:28:13;3.17;;;0.65;;
26562;SDS011;14217;50.986;5.826;2022-09-20T18:33:15;3.85;;;0.90;;
26562;SDS011;14217;50.986;5.826;2022-09-20T18:38:17;3.28;;;0.60;;
26562;SDS011;14217;50.986;5.826;2022-09-20T18:43:20;3.78;;;0.82;;
26562;SDS011;14217;50.986;5.826;2022-09-20T18:48:22;4.05;;;0.70;;
26562;SDS011;14217;50.986;5.826;2022-09-20T18:53:26;5.15;;;1.10;;
26562;SDS011;14217;50.986;5.826;2022-09-20T18:58:29;2.85;;;0.95;;
26562;SDS011;14217;50.986;5.826;2022-09-20T19:03:37;11.75;;;1.23;;
26562;SDS011;14217;50.986;5.826;2022-09-20T19:08:59;3.83;;;1.27;;
26562;SDS011;14217;50.986;5.826;2022-09-20T19:14:29;7.03;;;1.17;;
26562;SDS011;14217;50.986;5.826;2022-09-20T19:19:54;9.43;;;0.95;;
26562;SDS011;14217;50.986;5.826;2022-09-20T19:30:21;1.80;;;0.63;;
26562;SDS011;14217;50.986;5.826;2022-09-20T19:35:24;4.07;;;0.70;;
26562;SDS011;14217;50.986;5.826;2022-09-20T19:50:47;5.00;;;1.05;;
26562;SDS011;14217;50.986;5.826;2022-09-20T19:55:51;14.32;;;1.08;;
26562;SDS011;14217;50.986;5.826;2022-09-20T20:00:55;8.20;;;0.80;;
26562;SDS011;14217;50.986;5.826;2022-09-20T20:06:00;8.30;;;1.05;;
26562;SDS011;14217;50.986;5.826;2022-09-20T20:11:16;2.10;;;0.75;;
26562;SDS011;14217;50.986;5.826;2022-09-20T20:16:29;2.42;;;0.73;;
26562;SDS011;14217;50.986;5.826;2022-09-20T20:27:03;1.52;;;0.80;;
26562;SDS011;14217;50.986;5.826;2022-09-20T20:32:05;1.55;;;0.85;;
26562;SDS011;14217;50.986;5.826;2022-09-20T20:37:07;5.95;;;0.85;;
26562;SDS011;14217;50.986;5.826;2022-09-20T20:42:09;9.38;;;1.75;;
26562;SDS011;14217;50.986;5.826;2022-09-20T20:47:12;8.30;;;1.90;;
26562;SDS011;14217;50.986;5.826;2022-09-20T20:52:14;5.35;;;1.30;;
26562;SDS011;14217;50.986;5.826;2022-09-20T20:57:16;9.50;;;1.55;;
26562;SDS011;14217;50.986;5.826;2022-09-20T21:02:19;12.65;;;1.38;;
26562;SDS011;14217;50.986;5.826;2022-09-20T21:07:22;5.68;;;1.23;;
26562;SDS011;14217;50.986;5.826;2022-09-20T21:12:24;10.95;;;1.45;;
26562;SDS011;14217;50.986;5.826;2022-09-20T21:17:26;4.15;;;1.50;;
26562;SDS011;14217;50.986;5.826;2022-09-20T21:22:35;5.15;;;1.08;;
26562;SDS011;14217;50.986;5.826;2022-09-20T21:27:37;2.53;;;0.70;;
26562;SDS011;14217;50.986;5.826;2022-09-20T21:32:39;5.78;;;1.23;;
26562;SDS011;14217;50.986;5.826;2022-09-20T21:37:43;10.82;;;1.65;;
26562;SDS011;14217;50.986;5.826;2022-09-20T21:42:45;8.25;;;1.02;;
26562;SDS011;14217;50.986;5.826;2022-09-20T21:47:47;2.70;;;0.77;;
26562;SDS011;14217;50.986;5.826;2022-09-20T21:52:50;5.88;;;0.95;;
26562;SDS011;14217;50.986;5.826;2022-09-20T21:57:52;3.33;;;1.02;;
26562;SDS011;14217;50.986;5.826;2022-09-20T22:02:54;1.48;;;1.15;;
26562;SDS011;14217;50.986;5.826;2022-09-20T22:07:59;4.80;;;0.93;;
26562;SDS011;14217;50.986;5.826;2022-09-20T22:13:02;3.22;;;0.77;;
26562;SDS011;14217;50.986;5.826;2022-09-20T22:18:04;2.05;;;0.90;;
26562;SDS011;14217;50.986;5.826;2022-09-20T22:23:06;3.30;;;1.13;;
26562;SDS011;14217;50.986;5.826;2022-09-20T22:28:09;9.40;;;1.02;;
26562;SDS011;14217;50.986;5.826;2022-09-20T22:33:11;15.48;;;1.25;;
26562;SDS011;14217;50.986;5.826;2022-09-20T22:38:13;1.33;;;0.70;;
26562;SDS011;14217;50.986;5.826;2022-09-20T22:43:15;0.98;;;0.88;;
26562;SDS011;14217;50.986;5.826;2022-09-20T22:48:17;0.93;;;0.60;;
26562;SDS011;14217;50.986;5.826;2022-09-20T22:53:19;1.00;;;0.55;;
26562;SDS011;14217;50.986;5.826;2022-09-20T22:58:21;1.58;;;0.93;;
26562;SDS011;14217;50.986;5.826;2022-09-20T23:03:23;2.35;;;1.08;;
26562;SDS011;14217;50.986;5.826;2022-09-20T23:08:26;0.55;;;0.55;;
26562;SDS011;14217;50.986;5.826;2022-09-20T23:13:28;2.08;;;1.30;;
26562;SDS011;14217;50.986;5.826;2022-09-20T23:18:30;1.50;;;0.90;;
26562;SDS011;14217;50.986;5.826;2022-09-20T23:23:32;1.02;;;0.90;;
26562;SDS011;14217;50.986;5.826;2022-09-20T23:28:35;1.20;;;0.80;;
26562;SDS011;14217;50.986;5.826;2022-09-20T23:33:40;2.30;;;0.88;;
26562;SDS011;14217;50.986;5.826;2022-09-20T23:38:48;1.48;;;1.00;;
26562;SDS011;14217;50.986;5.826;2022-09-20T23:43:50;1.88;;;0.80;;
26562;SDS011;14217;50.986;5.826;2022-09-20T23:48:53;1.08;;;0.98;;
26562;SDS011;14217;50.986;5.826;2022-09-20T23:53:55;1.00;;;0.95;;
26562;SDS011;14217;50.986;5.826;2022-09-20T23:58:57;2.30;;;0.77;;
